createdAt,value
2018-08-10T00:00:13.917Z,0.00
2018-08-10T00:01:13.922Z,0.00
2018-08-10T00:02:13.846Z,0.00
2018-08-10T00:03:13.826Z,0.00
2018-08-10T00:04:13.805Z,0.00
2018-08-10T00:05:13.770Z,0.00
2018-08-10T00:06:13.752Z,0.00
2018-08-10T00:07:13.783Z,0.00
2018-08-10T00:08:13.687Z,0.00
2018-08-10T00:09:13.731Z,0.00
2018-08-10T00:10:13.674Z,0.00
2018-08-10T00:11:13.602Z,0.00
2018-08-10T00:12:13.585Z,0.00
2018-08-10T00:13:13.573Z,0.00
2018-08-10T00:14:13.536Z,0.00
2018-08-10T00:15:13.509Z,0.00
2018-08-10T00:16:13.481Z,0.00
2018-08-10T00:17:13.446Z,0.00
2018-08-10T00:18:13.424Z,0.00
2018-08-10T00:19:13.414Z,0.00
2018-08-10T00:20:13.374Z,0.00
2018-08-10T00:21:13.339Z,0.00
2018-08-10T00:22:13.308Z,0.00
2018-08-10T00:23:13.276Z,0.00
2018-08-10T00:24:13.280Z,0.00
2018-08-10T00:25:13.286Z,0.00
2018-08-10T00:26:13.195Z,0.00
2018-08-10T00:27:13.185Z,0.00
2018-08-10T00:28:13.171Z,0.00
2018-08-10T00:29:13.232Z,0.00
2018-08-10T00:30:13.089Z,0.00
2018-08-10T00:31:13.075Z,0.00
2018-08-10T00:32:13.040Z,0.00
2018-08-10T00:33:13.007Z,0.00
2018-08-10T00:34:12.984Z,0.00
2018-08-10T00:35:12.957Z,0.00
2018-08-10T00:36:12.918Z,0.00
2018-08-10T00:37:12.902Z,0.00
2018-08-10T00:38:12.878Z,0.00
2018-08-10T00:39:12.855Z,0.00
2018-08-10T00:40:12.819Z,0.00
2018-08-10T00:41:12.835Z,0.00
2018-08-10T00:42:12.757Z,0.00
2018-08-10T00:43:12.817Z,0.00
2018-08-10T00:44:12.782Z,0.00
2018-08-10T00:45:12.686Z,0.00
2018-08-10T00:46:12.667Z,0.00
2018-08-10T00:47:12.684Z,0.00
2018-08-10T00:48:12.610Z,0.00
2018-08-10T00:49:12.578Z,0.00
2018-08-10T00:50:12.543Z,0.00
2018-08-10T00:51:12.676Z,0.00
2018-08-10T00:52:12.496Z,0.00
2018-08-10T00:53:12.460Z,0.00
2018-08-10T00:54:12.437Z,0.00
2018-08-10T00:55:12.411Z,0.00
2018-08-10T00:56:12.375Z,0.00
2018-08-10T00:57:12.358Z,0.00
2018-08-10T00:58:12.334Z,0.00
2018-08-10T00:59:12.296Z,0.00
2018-08-10T01:00:12.277Z,0.00
2018-08-10T01:01:12.246Z,0.00
2018-08-10T01:02:12.217Z,0.00
2018-08-10T01:03:12.194Z,0.00
2018-08-10T01:04:12.174Z,0.00
2018-08-10T01:05:12.145Z,0.00
2018-08-10T01:06:12.110Z,0.00
2018-08-10T01:07:12.112Z,0.00
2018-08-10T01:08:12.053Z,0.00
2018-08-10T01:09:12.031Z,0.00
2018-08-10T01:10:12.057Z,0.00
2018-08-10T01:11:11.979Z,0.00
2018-08-10T01:12:11.948Z,0.00
2018-08-10T01:13:11.927Z,0.00
2018-08-10T01:14:11.901Z,0.00
2018-08-10T01:15:29.090Z,0.00
2018-08-10T01:17:17.852Z,0.00
2018-08-10T01:18:17.704Z,0.00
2018-08-10T01:20:20.951Z,0.00
2018-08-10T01:21:20.788Z,0.00
2018-08-10T01:23:45.709Z,0.00
2018-08-10T01:24:45.554Z,0.00
2018-08-10T01:26:51.497Z,0.00
2018-08-10T01:27:51.418Z,0.00
2018-08-10T01:29:56.291Z,0.00
2018-08-10T01:30:56.107Z,0.00
2018-08-10T01:31:56.082Z,0.00
2018-08-10T01:32:56.054Z,0.00
2018-08-10T01:33:56.020Z,0.00
2018-08-10T01:34:56.011Z,0.00
2018-08-10T01:35:55.970Z,0.00
2018-08-10T01:36:55.945Z,0.00
2018-08-10T01:37:55.919Z,0.00
2018-08-10T01:38:55.949Z,0.00
2018-08-10T01:39:55.862Z,0.00
2018-08-10T01:40:55.830Z,0.00
2018-08-10T01:41:55.912Z,0.00
2018-08-10T01:42:55.780Z,0.00
2018-08-10T01:43:55.765Z,0.00
2018-08-10T01:44:55.738Z,0.00
2018-08-10T01:45:55.700Z,0.00
2018-08-10T01:46:55.748Z,0.00
2018-08-10T01:47:55.655Z,0.00
2018-08-10T01:48:55.628Z,0.00
2018-08-10T01:49:55.593Z,0.00
2018-08-10T01:50:55.576Z,0.00
2018-08-10T01:51:57.260Z,0.00
2018-08-10T01:52:55.496Z,0.00
2018-08-10T01:53:55.469Z,0.00
2018-08-10T01:54:57.260Z,0.00
2018-08-10T01:55:55.447Z,0.00
2018-08-10T01:56:55.396Z,0.00
2018-08-10T01:57:55.381Z,0.00
2018-08-10T01:58:55.350Z,0.00
2018-08-10T01:59:55.335Z,0.00
2018-08-10T02:00:55.281Z,0.00
2018-08-10T02:01:55.251Z,0.00
2018-08-10T02:02:55.231Z,0.00
2018-08-10T02:03:55.227Z,0.00
2018-08-10T02:04:55.179Z,0.00
2018-08-10T02:05:55.143Z,0.00
2018-08-10T02:06:55.166Z,0.00
2018-08-10T02:07:55.088Z,0.00
2018-08-10T02:08:55.063Z,0.00
2018-08-10T02:09:55.035Z,0.00
2018-08-10T02:10:55.060Z,0.00
2018-08-10T02:11:55.051Z,0.00
2018-08-10T02:12:55.000Z,0.00
2018-08-10T02:13:54.980Z,0.00
2018-08-10T02:14:54.959Z,0.00
2018-08-10T02:15:54.934Z,0.00
2018-08-10T02:16:54.896Z,0.00
2018-08-10T02:17:54.877Z,0.00
2018-08-10T02:18:54.846Z,0.00
2018-08-10T02:19:54.814Z,0.00
2018-08-10T02:20:54.780Z,0.00
2018-08-10T02:21:54.766Z,0.00
2018-08-10T02:22:54.745Z,0.00
2018-08-10T02:23:54.712Z,0.00
2018-08-10T02:24:54.681Z,0.00
2018-08-10T02:25:54.653Z,0.00
2018-08-10T02:26:54.634Z,0.00
2018-08-10T02:27:54.707Z,0.00
2018-08-10T02:28:54.651Z,0.00
2018-08-10T02:29:54.598Z,0.00
2018-08-10T02:30:54.509Z,0.00
2018-08-10T02:31:54.493Z,0.00
2018-08-10T02:32:54.463Z,0.00
2018-08-10T02:33:54.445Z,0.00
2018-08-10T02:34:54.412Z,0.00
2018-08-10T02:35:54.396Z,0.00
2018-08-10T02:36:54.358Z,0.00
2018-08-10T02:37:54.255Z,0.00
2018-08-10T02:38:54.253Z,0.00
2018-08-10T02:39:54.251Z,0.00
2018-08-10T02:40:54.186Z,0.00
2018-08-10T02:41:54.151Z,0.00
2018-08-10T02:42:54.132Z,0.00
2018-08-10T02:43:54.088Z,0.00
2018-08-10T02:44:54.073Z,0.00
2018-08-10T02:45:54.068Z,0.00
2018-08-10T02:46:54.011Z,0.00
2018-08-10T02:47:53.993Z,0.00
2018-08-10T02:48:54.022Z,0.00
2018-08-10T02:49:53.930Z,0.00
2018-08-10T02:50:53.908Z,0.00
2018-08-10T02:51:53.889Z,0.00
2018-08-10T02:52:53.864Z,0.00
2018-08-10T02:53:53.830Z,0.00
2018-08-10T02:54:53.790Z,0.00
2018-08-10T02:55:53.834Z,0.00
2018-08-10T02:56:53.748Z,0.00
2018-08-10T02:57:53.719Z,0.00
2018-08-10T02:58:53.693Z,0.00
2018-08-10T02:59:53.672Z,0.00
2018-08-10T03:00:53.684Z,0.00
2018-08-10T03:01:53.591Z,0.00
2018-08-10T03:02:53.577Z,0.00
2018-08-10T03:03:53.585Z,0.00
2018-08-10T03:04:53.508Z,0.00
2018-08-10T03:06:08.268Z,0.00
2018-08-10T03:07:52.696Z,0.00
2018-08-10T03:08:52.615Z,0.00
2018-08-10T03:09:52.517Z,0.00
2018-08-10T03:10:52.482Z,0.00
2018-08-10T03:11:52.440Z,0.00
2018-08-10T03:12:54.374Z,0.00
2018-08-10T03:13:52.422Z,0.00
2018-08-10T03:14:52.365Z,0.00
2018-08-10T03:15:52.338Z,0.00
2018-08-10T03:16:52.347Z,0.00
2018-08-10T03:17:52.283Z,0.00
2018-08-10T03:18:52.251Z,0.00
2018-08-10T03:19:52.220Z,0.00
2018-08-10T03:20:52.191Z,0.00
2018-08-10T03:21:52.158Z,0.00
2018-08-10T03:22:52.130Z,0.00
2018-08-10T03:23:52.105Z,0.00
2018-08-10T03:24:52.209Z,0.00
2018-08-10T03:25:52.068Z,0.00
2018-08-10T03:26:52.037Z,0.00
2018-08-10T03:27:52.010Z,0.00
2018-08-10T03:28:51.976Z,0.00
2018-08-10T03:29:51.939Z,0.00
2018-08-10T03:30:51.933Z,0.00
2018-08-10T03:31:52.817Z,0.00
2018-08-10T03:32:51.877Z,0.00
2018-08-10T03:33:51.827Z,0.00
2018-08-10T03:34:51.835Z,0.00
2018-08-10T03:35:51.785Z,0.00
2018-08-10T03:36:51.752Z,0.00
2018-08-10T03:37:51.716Z,4.00
2018-08-10T03:38:51.696Z,4.00
2018-08-10T03:39:51.717Z,4.00
2018-08-10T03:40:51.631Z,0.00
2018-08-10T03:41:51.606Z,4.00
2018-08-10T03:42:51.576Z,4.00
2018-08-10T03:43:51.549Z,4.00
2018-08-10T03:44:51.522Z,4.00
2018-08-10T03:45:51.500Z,8.00
2018-08-10T03:46:51.488Z,8.00
2018-08-10T03:47:51.427Z,8.00
2018-08-10T03:48:51.409Z,12.00
2018-08-10T03:49:51.415Z,12.00
2018-08-10T03:50:51.359Z,16.00
2018-08-10T03:51:51.387Z,12.00
2018-08-10T03:52:51.315Z,16.00
2018-08-10T03:53:51.264Z,20.00
2018-08-10T03:54:51.246Z,20.00
2018-08-10T03:55:51.246Z,28.00
2018-08-10T03:56:51.182Z,28.00
2018-08-10T03:57:51.193Z,36.00
2018-08-10T03:58:51.165Z,40.00
2018-08-10T03:59:51.209Z,44.00
2018-08-10T04:00:51.207Z,48.00
2018-08-10T04:01:51.173Z,56.00
2018-08-10T04:02:51.063Z,64.00
2018-08-10T04:04:05.720Z,72.00
2018-08-10T04:05:55.492Z,84.00
2018-08-10T04:06:55.338Z,96.00
2018-08-10T04:08:58.793Z,120.00
2018-08-10T04:09:58.681Z,128.00
2018-08-10T04:12:03.584Z,156.00
2018-08-10T04:13:03.513Z,168.00
2018-08-10T04:14:03.493Z,184.00
2018-08-10T04:15:03.374Z,200.00
2018-08-10T04:16:03.345Z,216.00
2018-08-10T04:17:03.339Z,232.00
2018-08-10T04:18:03.284Z,256.00
2018-08-10T04:19:03.262Z,272.00
2018-08-10T04:20:03.238Z,296.00
2018-08-10T04:21:03.212Z,316.00
2018-08-10T04:22:03.207Z,340.00
2018-08-10T04:23:03.149Z,360.00
2018-08-10T04:24:03.113Z,384.00
2018-08-10T04:25:03.094Z,408.00
2018-08-10T04:26:03.055Z,436.00
2018-08-10T04:27:03.047Z,460.00
2018-08-10T04:28:03.005Z,492.00
2018-08-10T04:29:02.977Z,516.00
2018-08-10T04:30:02.958Z,544.00
2018-08-10T04:31:02.931Z,568.00
2018-08-10T04:32:02.994Z,588.00
2018-08-10T04:33:02.867Z,612.00
2018-08-10T04:34:02.860Z,640.00
2018-08-10T04:35:02.816Z,672.00
2018-08-10T04:36:02.775Z,700.00
2018-08-10T04:37:02.748Z,736.00
2018-08-10T04:38:02.764Z,768.00
2018-08-10T04:39:02.691Z,800.00
2018-08-10T04:40:02.675Z,824.00
2018-08-10T04:41:02.668Z,852.00
2018-08-10T04:42:02.611Z,876.00
2018-08-10T04:43:02.584Z,900.00
2018-08-10T04:44:02.608Z,924.00
2018-08-10T04:45:02.524Z,952.00
2018-08-10T04:46:02.498Z,976.00
2018-08-10T04:47:02.499Z,1000.00
2018-08-10T04:48:02.481Z,1024.00
2018-08-10T04:49:02.446Z,1048.00
2018-08-10T04:50:02.421Z,1076.00
2018-08-10T04:51:02.417Z,1104.00
2018-08-10T04:52:02.337Z,1128.00
2018-08-10T04:53:02.340Z,1152.00
2018-08-10T04:54:19.487Z,1176.00
2018-08-10T04:56:07.920Z,1224.00
2018-08-10T04:57:07.677Z,1248.00
2018-08-10T04:59:13.524Z,1296.00
2018-08-10T05:00:13.395Z,1320.00
2018-08-10T05:01:13.399Z,1344.00
2018-08-10T05:02:15.012Z,1368.00
2018-08-10T05:03:13.283Z,1388.00
2018-08-10T05:04:13.260Z,1408.00
2018-08-10T05:05:13.241Z,1432.00
2018-08-10T05:06:13.206Z,1452.00
2018-08-10T05:07:13.175Z,1472.00
2018-08-10T05:08:13.147Z,1496.00
2018-08-10T05:09:13.137Z,1516.00
2018-08-10T05:10:16.140Z,1536.00
2018-08-10T05:11:13.064Z,1560.00
2018-08-10T05:12:13.033Z,1584.00
2018-08-10T05:13:13.040Z,1600.00
2018-08-10T05:14:13.143Z,1624.00
2018-08-10T05:15:13.066Z,1644.00
2018-08-10T05:16:13.020Z,1664.00
2018-08-10T05:17:12.889Z,1684.00
2018-08-10T05:18:12.866Z,1700.00
2018-08-10T05:19:12.841Z,1716.00
2018-08-10T05:20:12.807Z,1736.00
2018-08-10T05:21:12.910Z,1756.00
2018-08-10T05:22:14.543Z,1776.00
2018-08-10T05:23:12.719Z,1792.00
2018-08-10T05:24:12.750Z,1808.00
2018-08-10T05:25:12.735Z,1828.00
2018-08-10T05:26:13.869Z,1844.00
2018-08-10T05:27:24.608Z,1864.00
2018-08-10T05:28:12.640Z,1880.00
2018-08-10T05:29:12.750Z,1900.00
2018-08-10T05:30:12.549Z,1928.00
2018-08-10T05:31:12.600Z,1944.00
2018-08-10T05:32:12.478Z,1964.00
2018-08-10T05:33:12.453Z,1988.00
2018-08-10T05:34:12.426Z,2016.00
2018-08-10T05:35:12.389Z,2036.00
2018-08-10T05:36:12.367Z,2052.00
2018-08-10T05:37:12.334Z,2072.00
2018-08-10T05:38:12.387Z,2084.00
2018-08-10T05:39:14.037Z,2096.00
2018-08-10T05:40:12.313Z,2108.00
2018-08-10T05:41:12.224Z,2120.00
2018-08-10T05:42:12.204Z,2140.00
2018-08-10T05:43:12.164Z,2148.00
2018-08-10T05:44:12.209Z,2152.00
2018-08-10T05:45:12.119Z,2180.00
2018-08-10T05:46:12.243Z,2188.00
2018-08-10T05:47:12.096Z,2200.00
2018-08-10T05:48:12.346Z,2224.00
2018-08-10T05:49:12.170Z,2232.00
2018-08-10T05:50:12.095Z,2236.00
2018-08-10T05:51:12.122Z,2256.00
2018-08-10T05:52:12.091Z,2268.00
2018-08-10T05:53:12.135Z,2288.00
2018-08-10T05:54:11.878Z,2304.00
2018-08-10T05:55:11.906Z,2328.00
2018-08-10T05:56:12.115Z,2348.00
2018-08-10T05:57:11.815Z,2380.00
2018-08-10T05:58:11.753Z,2396.00
2018-08-10T05:59:13.595Z,2412.00
2018-08-10T06:00:29.813Z,2440.00
2018-08-10T06:02:15.514Z,2460.00
2018-08-10T06:03:14.871Z,2476.00
2018-08-10T06:05:19.194Z,2524.00
2018-08-10T06:06:19.394Z,2480.00
2018-08-10T06:08:22.047Z,2576.00
2018-08-10T06:09:22.023Z,2584.00
2018-08-10T06:11:30.937Z,2640.00
2018-08-10T06:12:30.853Z,2680.00
2018-08-10T06:14:26.751Z,2744.00
2018-08-10T06:15:26.774Z,2772.00
2018-08-10T06:17:28.239Z,2816.00
2018-08-10T06:18:28.245Z,2816.00
2018-08-10T06:20:34.310Z,2940.00
2018-08-10T06:21:34.135Z,3028.00
2018-08-10T06:22:33.997Z,3120.00
2018-08-10T06:23:34.076Z,3148.00
2018-08-10T06:24:34.028Z,3588.00
2018-08-10T06:25:33.891Z,3788.00
2018-08-10T06:26:33.825Z,3744.00
2018-08-10T06:27:33.868Z,3692.00
2018-08-10T06:28:33.878Z,3828.00
2018-08-10T06:29:33.748Z,4040.00
2018-08-10T06:30:33.748Z,4048.00
2018-08-10T06:31:33.905Z,3948.00
2018-08-10T06:32:33.694Z,3888.00
2018-08-10T06:33:33.642Z,3880.00
2018-08-10T06:34:33.617Z,3928.00
2018-08-10T06:35:33.583Z,4356.00
2018-08-10T06:36:33.646Z,5052.00
2018-08-10T06:37:33.521Z,5104.00
2018-08-10T06:38:33.513Z,5312.00
2018-08-10T06:39:33.461Z,5008.00
2018-08-10T06:40:45.602Z,4664.00
2018-08-10T06:42:42.485Z,4748.00
2018-08-10T06:43:42.274Z,4884.00
2018-08-10T06:45:46.633Z,5336.00
2018-08-10T06:46:46.588Z,5404.00
2018-08-10T06:48:50.039Z,5036.00
2018-08-10T06:49:49.965Z,4696.00
2018-08-10T06:51:53.588Z,4328.00
2018-08-10T06:52:53.342Z,4272.00
2018-08-10T06:54:57.753Z,4500.00
2018-08-10T06:55:57.853Z,4576.00
2018-08-10T06:56:57.721Z,4860.00
2018-08-10T06:57:57.606Z,5016.00
2018-08-10T06:58:57.593Z,4776.00
2018-08-10T06:59:57.541Z,4288.00
2018-08-10T07:00:57.585Z,4060.00
2018-08-10T07:01:57.487Z,3544.00
2018-08-10T07:02:57.537Z,3872.00
2018-08-10T07:03:57.442Z,3592.00
2018-08-10T07:04:57.407Z,3632.00
2018-08-10T07:05:57.384Z,3640.00
2018-08-10T07:06:57.366Z,3544.00
2018-08-10T07:07:57.416Z,3628.00
2018-08-10T07:08:57.361Z,3464.00
2018-08-10T07:09:57.291Z,3416.00
2018-08-10T07:10:57.258Z,3668.00
2018-08-10T07:11:57.302Z,3668.00
2018-08-10T07:12:57.205Z,3676.00
2018-08-10T07:13:57.178Z,3752.00
2018-08-10T07:14:57.147Z,3536.00
2018-08-10T07:15:57.136Z,3828.00
2018-08-10T07:16:57.135Z,3804.00
2018-08-10T07:17:57.073Z,3820.00
2018-08-10T07:18:57.053Z,3940.00
2018-08-10T07:19:57.015Z,4080.00
2018-08-10T07:20:56.992Z,4188.00
2018-08-10T07:21:56.966Z,4092.00
2018-08-10T07:22:56.927Z,4068.00
2018-08-10T07:23:56.902Z,4404.00
2018-08-10T07:24:56.887Z,4796.00
2018-08-10T07:25:56.852Z,4716.00
2018-08-10T07:26:56.837Z,4036.00
2018-08-10T07:27:56.802Z,3804.00
2018-08-10T07:28:56.779Z,3860.00
2018-08-10T07:29:56.745Z,4128.00
2018-08-10T07:30:56.718Z,4500.00
2018-08-10T07:31:56.690Z,4644.00
2018-08-10T07:32:56.670Z,4500.00
2018-08-10T07:33:56.635Z,4328.00
2018-08-10T07:34:56.624Z,4640.00
2018-08-10T07:35:56.629Z,5364.00
2018-08-10T07:36:56.565Z,5032.00
2018-08-10T07:37:56.534Z,5592.00
2018-08-10T07:38:56.517Z,4484.00
2018-08-10T07:39:56.487Z,4852.00
2018-08-10T07:40:56.614Z,5188.00
2018-08-10T07:41:56.435Z,5888.00
2018-08-10T07:42:56.448Z,5068.00
2018-08-10T07:43:56.401Z,4312.00
2018-08-10T07:44:56.377Z,5208.00
2018-08-10T07:45:56.463Z,5748.00
2018-08-10T07:46:56.307Z,6356.00
2018-08-10T07:47:56.277Z,6580.00
2018-08-10T07:48:56.247Z,6908.00
2018-08-10T07:49:56.224Z,6276.00
2018-08-10T07:50:56.319Z,5584.00
2018-08-10T07:51:56.179Z,5396.00
2018-08-10T07:52:56.146Z,3972.00
2018-08-10T07:53:56.120Z,4200.00
2018-08-10T07:54:56.090Z,4552.00
2018-08-10T07:55:56.079Z,5480.00
2018-08-10T07:56:56.095Z,5432.00
2018-08-10T07:57:56.019Z,5200.00
2018-08-10T07:58:56.056Z,5460.00
2018-08-10T07:59:55.968Z,4316.00
2018-08-10T08:00:55.938Z,4808.00
2018-08-10T08:01:55.928Z,5348.00
2018-08-10T08:02:55.888Z,5464.00
2018-08-10T08:03:55.860Z,5408.00
2018-08-10T08:04:55.838Z,5620.00
2018-08-10T08:05:55.834Z,5700.00
2018-08-10T08:06:55.844Z,5224.00
2018-08-10T08:07:55.763Z,5280.00
2018-08-10T08:08:55.729Z,5696.00
2018-08-10T08:09:55.717Z,6108.00
2018-08-10T08:10:55.684Z,7364.00
2018-08-10T08:11:55.663Z,6472.00
2018-08-10T08:12:55.634Z,7288.00
2018-08-10T08:13:55.606Z,7244.00
2018-08-10T08:14:55.608Z,6720.00
2018-08-10T08:15:55.553Z,6256.00
2018-08-10T08:16:55.530Z,6132.00
2018-08-10T08:17:55.509Z,5560.00
2018-08-10T08:18:55.477Z,4760.00
2018-08-10T08:19:55.540Z,5280.00
2018-08-10T08:20:55.436Z,5524.00
2018-08-10T08:21:55.401Z,5220.00
2018-08-10T08:22:55.366Z,5156.00
2018-08-10T08:23:55.471Z,4732.00
2018-08-10T08:24:55.326Z,5024.00
2018-08-10T08:25:55.297Z,4484.00
2018-08-10T08:26:55.271Z,5188.00
2018-08-10T08:27:55.249Z,5020.00
2018-08-10T08:28:55.222Z,4772.00
2018-08-10T08:29:55.315Z,4460.00
2018-08-10T08:30:55.179Z,4548.00
2018-08-10T08:31:55.159Z,5432.00
2018-08-10T08:32:55.117Z,6364.00
2018-08-10T08:33:55.103Z,7096.00
2018-08-10T08:34:55.168Z,5384.00
2018-08-10T08:35:55.049Z,5444.00
2018-08-10T08:36:55.026Z,6840.00
2018-08-10T08:37:54.988Z,7068.00
2018-08-10T08:38:54.972Z,6840.00
2018-08-10T08:39:54.951Z,6208.00
2018-08-10T08:40:54.956Z,6272.00
2018-08-10T08:41:54.891Z,6756.00
2018-08-10T08:42:54.872Z,6680.00
2018-08-10T08:43:54.837Z,6232.00
2018-08-10T08:44:54.830Z,6992.00
2018-08-10T08:45:55.153Z,5232.00
2018-08-10T08:46:54.765Z,5228.00
2018-08-10T08:47:54.735Z,5284.00
2018-08-10T08:48:54.712Z,5364.00
2018-08-10T08:49:54.710Z,5724.00
2018-08-10T08:50:54.661Z,6120.00
2018-08-10T08:51:54.633Z,6404.00
2018-08-10T08:52:54.626Z,7344.00
2018-08-10T08:53:54.654Z,7772.00
2018-08-10T08:54:54.637Z,8480.00
2018-08-10T08:55:54.553Z,8980.00
2018-08-10T08:56:54.571Z,7224.00
2018-08-10T08:57:54.489Z,6552.00
2018-08-10T08:58:54.461Z,7480.00
2018-08-10T08:59:54.449Z,8396.00
2018-08-10T09:00:54.409Z,7804.00
2018-08-10T09:01:54.394Z,6996.00
2018-08-10T09:02:54.512Z,5608.00
2018-08-10T09:04:17.351Z,4748.00
2018-08-10T09:05:55.436Z,6068.00
2018-08-10T09:06:54.774Z,5388.00
2018-08-10T09:08:52.820Z,5728.00
2018-08-10T09:09:52.805Z,5784.00
2018-08-10T09:12:05.689Z,8056.00
2018-08-10T09:13:05.529Z,8204.00
2018-08-10T09:15:07.319Z,6764.00
2018-08-10T09:16:06.977Z,6840.00
2018-08-10T09:17:07.179Z,8288.00
2018-08-10T09:18:09.033Z,5564.00
2018-08-10T09:19:06.901Z,6868.00
2018-08-10T09:20:06.932Z,6288.00
2018-08-10T09:21:06.838Z,4964.00
2018-08-10T09:22:06.850Z,4680.00
2018-08-10T09:23:06.818Z,4568.00
2018-08-10T09:24:06.767Z,4500.00
2018-08-10T09:25:06.743Z,4716.00
2018-08-10T09:26:06.727Z,4700.00
2018-08-10T09:27:06.753Z,4612.00
2018-08-10T09:28:06.697Z,4892.00
2018-08-10T09:29:06.655Z,5164.00
2018-08-10T09:30:06.676Z,5220.00
2018-08-10T09:31:06.604Z,5168.00
2018-08-10T09:32:06.569Z,5232.00
2018-08-10T09:33:06.555Z,5192.00
2018-08-10T09:34:06.521Z,5100.00
2018-08-10T09:35:06.508Z,5440.00
2018-08-10T09:36:06.473Z,6212.00
2018-08-10T09:37:06.460Z,6180.00
2018-08-10T09:38:06.411Z,6672.00
2018-08-10T09:39:06.387Z,7016.00
2018-08-10T09:40:06.482Z,7080.00
2018-08-10T09:41:06.342Z,6996.00
2018-08-10T09:42:06.362Z,9684.00
2018-08-10T09:43:06.287Z,10164.00
2018-08-10T09:44:27.601Z,10140.00
2018-08-10T09:45:06.237Z,9632.00
2018-08-10T09:46:06.260Z,9312.00
2018-08-10T09:47:06.190Z,8820.00
2018-08-10T09:48:06.169Z,6564.00
2018-08-10T09:49:06.149Z,7500.00
2018-08-10T09:50:06.143Z,8716.00
2018-08-10T09:51:06.100Z,8428.00
2018-08-10T09:52:06.068Z,8836.00
2018-08-10T09:53:06.055Z,8440.00
2018-08-10T09:54:06.087Z,8136.00
2018-08-10T09:55:05.993Z,7020.00
2018-08-10T09:56:08.885Z,8400.00
2018-08-10T09:57:05.946Z,8492.00
2018-08-10T09:58:05.932Z,8636.00
2018-08-10T09:59:05.902Z,8580.00
2018-08-10T10:00:05.901Z,8460.00
2018-08-10T10:01:05.853Z,7048.00
2018-08-10T10:02:05.823Z,8268.00
2018-08-10T10:03:05.806Z,5640.00
2018-08-10T10:04:05.777Z,7664.00
2018-08-10T10:05:05.764Z,7664.00
2018-08-10T10:06:05.733Z,7784.00
2018-08-10T10:07:05.700Z,8188.00
2018-08-10T10:08:05.677Z,8212.00
2018-08-10T10:09:05.740Z,8308.00
2018-08-10T10:10:05.635Z,8616.00
2018-08-10T10:11:05.630Z,8704.00
2018-08-10T10:12:05.630Z,9192.00
2018-08-10T10:13:05.562Z,8980.00
2018-08-10T10:14:05.536Z,8444.00
2018-08-10T10:15:05.530Z,8184.00
2018-08-10T10:16:05.554Z,8088.00
2018-08-10T10:17:05.552Z,7796.00
2018-08-10T10:18:05.651Z,5944.00
2018-08-10T10:19:05.449Z,8852.00
2018-08-10T10:20:05.456Z,9020.00
2018-08-10T10:21:05.617Z,8824.00
2018-08-10T10:22:05.372Z,8212.00
2018-08-10T10:23:05.337Z,7324.00
2018-08-10T10:24:05.306Z,6952.00
2018-08-10T10:25:05.503Z,4980.00
2018-08-10T10:26:05.337Z,4632.00
2018-08-10T10:27:05.278Z,6892.00
2018-08-10T10:28:05.333Z,6892.00
2018-08-10T10:29:06.893Z,7104.00
2018-08-10T10:30:24.095Z,7400.00
2018-08-10T10:32:05.742Z,7576.00
2018-08-10T10:33:05.792Z,7412.00
2018-08-10T10:35:03.444Z,7092.00
2018-08-10T10:36:03.569Z,6732.00
2018-08-10T10:38:03.908Z,6968.00
2018-08-10T10:39:03.887Z,7272.00
2018-08-10T10:41:14.938Z,8280.00
2018-08-10T10:42:15.065Z,8972.00
2018-08-10T10:44:19.331Z,9588.00
2018-08-10T10:45:19.660Z,9092.00
2018-08-10T10:47:23.913Z,9360.00
2018-08-10T10:48:23.904Z,9160.00
2018-08-10T10:50:28.820Z,8936.00
2018-08-10T10:51:28.488Z,8080.00
2018-08-10T10:53:32.647Z,8156.00
2018-08-10T10:54:32.471Z,6784.00
2018-08-10T10:56:30.544Z,5964.00
2018-08-10T10:57:30.545Z,5948.00
2018-08-10T10:59:33.622Z,6780.00
2018-08-10T11:00:34.090Z,8320.00
2018-08-10T11:01:33.794Z,7732.00
2018-08-10T11:02:33.782Z,8064.00
2018-08-10T11:03:34.076Z,6404.00
2018-08-10T11:04:35.367Z,8436.00
2018-08-10T11:05:33.394Z,8416.00
2018-08-10T11:06:35.085Z,8260.00
2018-08-10T11:07:36.040Z,8340.00
2018-08-10T11:13:22.133Z,8612.00
2018-08-10T11:16:09.918Z,8380.00
2018-08-10T11:17:26.927Z,8352.00
2018-08-10T11:19:14.461Z,8336.00
2018-08-10T11:20:14.297Z,8312.00
2018-08-10T11:22:14.954Z,8444.00
2018-08-10T11:23:13.173Z,8572.00
2018-08-10T11:24:13.192Z,8900.00
2018-08-10T11:25:13.100Z,9108.00
2018-08-10T11:26:13.130Z,8996.00
2018-08-10T11:27:12.994Z,9156.00
2018-08-10T11:28:12.965Z,9372.00
2018-08-10T11:29:12.854Z,8996.00
2018-08-10T11:30:12.865Z,8756.00
2018-08-10T11:31:13.171Z,8192.00
2018-08-10T11:32:13.323Z,8144.00
2018-08-10T11:33:13.237Z,6548.00
2018-08-10T11:34:12.931Z,7300.00
2018-08-10T11:35:27.558Z,6956.00
2018-08-10T11:37:27.604Z,6948.00
2018-08-10T11:38:26.987Z,7200.00
2018-08-10T11:40:28.312Z,7712.00
2018-08-10T11:41:28.560Z,8044.00
2018-08-10T11:42:28.197Z,8372.00
2018-08-10T11:43:28.062Z,8560.00
2018-08-10T11:44:27.887Z,8348.00
2018-08-10T11:45:27.973Z,7868.00
2018-08-10T11:46:27.848Z,7616.00
2018-08-10T11:47:27.831Z,7688.00
2018-08-10T11:48:27.807Z,7704.00
2018-08-10T11:49:27.783Z,7588.00
2018-08-10T11:50:27.816Z,5188.00
2018-08-10T11:51:27.732Z,5752.00
2018-08-10T11:52:27.739Z,7020.00
2018-08-10T11:53:27.727Z,10084.00
2018-08-10T11:54:27.717Z,7636.00
2018-08-10T11:55:27.654Z,11296.00
2018-08-10T11:56:27.675Z,11072.00
2018-08-10T11:57:27.613Z,7360.00
2018-08-10T11:58:27.609Z,7276.00
2018-08-10T11:59:27.584Z,9604.00
2018-08-10T12:00:27.553Z,6620.00
2018-08-10T12:01:27.536Z,6980.00
2018-08-10T12:02:27.509Z,11052.00
2018-08-10T12:03:27.506Z,11060.00
2018-08-10T12:04:27.487Z,11104.00
2018-08-10T12:05:27.449Z,7284.00
2018-08-10T12:06:27.445Z,10288.00
2018-08-10T12:07:27.420Z,10016.00
2018-08-10T12:08:27.403Z,9968.00
2018-08-10T12:09:27.385Z,10528.00
2018-08-10T12:10:27.357Z,10736.00
2018-08-10T12:11:27.333Z,11004.00
2018-08-10T12:12:27.363Z,11448.00
2018-08-10T12:13:27.313Z,8756.00
2018-08-10T12:14:27.274Z,12180.00
2018-08-10T12:15:27.260Z,8800.00
2018-08-10T12:16:27.244Z,12104.00
2018-08-10T12:17:27.234Z,12424.00
2018-08-10T12:18:27.207Z,12372.00
2018-08-10T12:19:27.206Z,12408.00
2018-08-10T12:20:27.167Z,7764.00
2018-08-10T12:21:27.139Z,12900.00
2018-08-10T12:22:27.125Z,8800.00
2018-08-10T12:23:27.095Z,8364.00
2018-08-10T12:24:27.071Z,9148.00
2018-08-10T12:25:27.069Z,8388.00
2018-08-10T12:26:27.109Z,8300.00
2018-08-10T12:27:27.027Z,8660.00
2018-08-10T12:28:26.998Z,8548.00
2018-08-10T12:29:26.977Z,8528.00
2018-08-10T12:30:26.951Z,8924.00
2018-08-10T12:31:26.935Z,8996.00
2018-08-10T12:32:26.924Z,9264.00
2018-08-10T12:33:26.900Z,10856.00
2018-08-10T12:34:26.869Z,15056.00
2018-08-10T12:35:26.856Z,10216.00
2018-08-10T12:36:26.828Z,9776.00
2018-08-10T12:37:26.822Z,10328.00
2018-08-10T12:38:26.792Z,8756.00
2018-08-10T12:39:26.840Z,9060.00
2018-08-10T12:40:26.749Z,9132.00
2018-08-10T12:41:26.725Z,9200.00
2018-08-10T12:42:26.705Z,11952.00
2018-08-10T12:43:26.693Z,15060.00
2018-08-10T12:44:26.663Z,13940.00
2018-08-10T12:45:26.640Z,8536.00
2018-08-10T12:46:26.627Z,8728.00
2018-08-10T12:47:26.645Z,9108.00
2018-08-10T12:48:26.618Z,8912.00
2018-08-10T12:49:26.679Z,9092.00
2018-08-10T12:50:26.627Z,10004.00
2018-08-10T12:51:26.532Z,11108.00
2018-08-10T12:52:26.507Z,10524.00
2018-08-10T12:53:26.508Z,10112.00
2018-08-10T12:54:26.519Z,12640.00
2018-08-10T12:55:26.430Z,9164.00
2018-08-10T12:56:26.409Z,10216.00
2018-08-10T12:57:26.447Z,9840.00
2018-08-10T12:58:26.385Z,9436.00
2018-08-10T12:59:26.359Z,15080.00
2018-08-10T13:00:26.331Z,13004.00
2018-08-10T13:01:26.329Z,15968.00
2018-08-10T13:02:26.291Z,9868.00
2018-08-10T13:03:26.295Z,10424.00
2018-08-10T13:04:26.262Z,10796.00
2018-08-10T13:05:26.243Z,11424.00
2018-08-10T13:06:26.316Z,12260.00
2018-08-10T13:07:26.187Z,11692.00
2018-08-10T13:08:26.168Z,10156.00
2018-08-10T13:09:26.155Z,13444.00
2018-08-10T13:10:26.179Z,11120.00
2018-08-10T13:11:26.146Z,8232.00
2018-08-10T13:12:26.103Z,7804.00
2018-08-10T13:13:47.594Z,7980.00
2018-08-10T13:14:26.066Z,8300.00
2018-08-10T13:15:26.164Z,8228.00
2018-08-10T13:16:26.075Z,14524.00